Englewood, South Dakota
Current Conditions -  °F | °C
As of 2:35 PM on Saturday 25 Oct 2014 (Local Time) from KSPF Reporting Station
Clear Clear  
Wind Chill: 68°   Ceiling: Unl
Heat Index: 68°   Visibility: 10mi
Dew Point: 41°   Wind: 5mph
Humidity: 37%   Direction: 50°NE
Pressure: 30.01"   Gusts: NA
Location:  44.253°N, 103.912°W
Report Text: KSPF 252035Z AUTO 05004KT 10SM CLR 20/05 A3001 RMK AO2
Loading
Personal Weather Stations






























Interactive Weather Map
Tropical Storm Tracking
New forecast layout! Learn more

10-Day Weather Forecast

Advertisements
Track Severe Weather on mobile